createdAt,value
2022-09-28T00:01:27.220Z,16.00
2022-09-28T00:03:59.942Z,15.96
2022-09-28T00:06:30.757Z,15.94
2022-09-28T00:08:58.742Z,15.85
2022-09-28T00:11:29.295Z,15.42
2022-09-28T00:14:00.129Z,15.46
2022-09-28T00:16:31.657Z,15.54
2022-09-28T00:18:59.913Z,15.60
2022-09-28T00:21:31.671Z,15.66
2022-09-28T00:24:12.984Z,15.66
2022-09-28T00:26:41.793Z,15.66
2022-09-28T00:29:31.629Z,15.66
2022-09-28T00:32:03.132Z,15.69
2022-09-28T00:34:42.532Z,15.68
2022-09-28T00:37:10.370Z,15.69
2022-09-28T00:39:38.833Z,15.68
2022-09-28T00:42:19.999Z,15.69
2022-09-28T00:44:51.511Z,15.68
2022-09-28T00:47:33.194Z,15.64
2022-09-28T00:50:11.868Z,15.62
2022-09-28T00:52:48.763Z,15.61
2022-09-28T00:55:22.056Z,15.56
2022-09-28T00:57:52.410Z,15.52
2022-09-28T01:00:19.729Z,15.52
2022-09-28T01:02:47.743Z,15.56
2022-09-28T01:05:17.125Z,15.60
2022-09-28T01:07:46.683Z,15.58
2022-09-28T01:10:14.925Z,15.44
2022-09-28T01:12:42.166Z,15.33
2022-09-28T01:15:09.937Z,15.27
2022-09-28T01:17:45.459Z,15.33
2022-09-28T01:20:31.311Z,15.20
2022-09-28T01:23:37.663Z,15.28
2022-09-28T01:26:23.275Z,15.25
2022-09-28T01:28:59.800Z,15.24
2022-09-28T01:31:32.497Z,15.26
2022-09-28T01:34:16.601Z,15.25
2022-09-28T01:36:54.077Z,15.27
2022-09-28T01:39:34.754Z,15.25
2022-09-28T01:42:08.437Z,15.15
2022-09-28T01:44:40.114Z,15.01
2022-09-28T01:47:13.048Z,15.02
2022-09-28T01:49:45.388Z,15.03
2022-09-28T01:52:23.342Z,14.98
2022-09-28T01:54:53.565Z,14.95
2022-09-28T01:57:35.911Z,14.78
2022-09-28T02:00:08.048Z,14.73
2022-09-28T02:02:58.472Z,14.64
2022-09-28T02:05:52.052Z,14.67
2022-09-28T02:08:33.909Z,14.71
2022-09-28T02:11:08.250Z,14.77
2022-09-28T02:14:04.461Z,14.83
2022-09-28T02:16:43.070Z,14.73
2022-09-28T02:19:13.906Z,14.78
2022-09-28T02:22:06.685Z,14.82
2022-09-28T02:24:42.489Z,14.86
2022-09-28T02:27:23.493Z,14.90
2022-09-28T02:29:50.785Z,14.89
2022-09-28T02:32:20.443Z,14.87
2022-09-28T02:34:47.596Z,14.78
2022-09-28T02:37:14.784Z,14.78
2022-09-28T02:39:41.965Z,14.78
2022-09-28T02:42:25.821Z,14.57
2022-09-28T02:45:16.045Z,14.79
2022-09-28T02:47:52.088Z,14.71
2022-09-28T02:50:33.465Z,14.67
2022-09-28T02:53:28.061Z,14.59
2022-09-28T02:56:04.169Z,14.48
2022-09-28T02:58:49.465Z,14.47
2022-09-28T03:01:26.316Z,14.51
2022-09-28T03:04:02.042Z,14.54
2022-09-28T03:06:41.329Z,14.22
2022-09-28T03:09:22.188Z,14.29
2022-09-28T03:11:57.178Z,14.24
2022-09-28T03:14:24.663Z,14.17
2022-09-28T03:16:56.185Z,14.23
2022-09-28T03:19:28.499Z,14.19
2022-09-28T03:21:55.867Z,14.18
2022-09-28T03:24:23.106Z,14.11
2022-09-28T03:26:50.758Z,14.02
2022-09-28T03:29:20.501Z,14.06
2022-09-28T03:31:52.617Z,14.18
2022-09-28T03:34:20.172Z,14.25
2022-09-28T03:36:47.444Z,14.24
2022-09-28T03:39:14.936Z,14.25
2022-09-28T03:41:42.615Z,14.22
2022-09-28T03:44:09.745Z,14.19
2022-09-28T03:46:37.020Z,14.25
2022-09-28T03:49:07.451Z,14.28
2022-09-28T03:51:34.506Z,14.29
2022-09-28T03:54:01.662Z,14.38
2022-09-28T03:56:28.737Z,14.32
2022-09-28T03:58:55.807Z,14.32
2022-09-28T04:01:23.140Z,14.33
2022-09-28T04:03:57.608Z,14.29
2022-09-28T04:06:26.001Z,14.20
2022-09-28T04:08:53.881Z,14.11
2022-09-28T04:11:21.526Z,13.97
2022-09-28T04:13:51.816Z,13.91
2022-09-28T04:16:19.634Z,13.76
2022-09-28T04:18:59.168Z,13.68
2022-09-28T04:21:45.050Z,13.70
2022-09-28T04:24:14.636Z,13.70
2022-09-28T04:26:41.869Z,13.58
2022-09-28T04:29:17.520Z,13.56
2022-09-28T04:31:51.051Z,13.56
2022-09-28T04:34:21.966Z,13.67
2022-09-28T04:36:50.072Z,13.80
2022-09-28T04:39:19.490Z,13.82
2022-09-28T04:41:52.538Z,13.96
2022-09-28T04:44:19.841Z,14.03
2022-09-28T04:46:48.329Z,14.11
2022-09-28T04:49:30.455Z,14.74
2022-09-28T04:52:10.973Z,15.08
2022-09-28T04:54:39.784Z,15.17
2022-09-28T04:57:06.883Z,15.45
2022-09-28T04:59:34.614Z,15.61
2022-09-28T05:02:01.796Z,15.91
2022-09-28T05:04:47.919Z,16.15
2022-09-28T05:07:36.969Z,16.22
2022-09-28T05:10:06.623Z,16.36
2022-09-28T05:12:34.432Z,16.30
2022-09-28T05:15:01.719Z,15.89
2022-09-28T05:17:29.001Z,15.96
2022-09-28T05:20:06.767Z,15.95
2022-09-28T05:22:34.491Z,16.07
2022-09-28T05:25:03.063Z,16.44
2022-09-28T05:27:36.513Z,16.63
2022-09-28T05:30:08.873Z,16.62
2022-09-28T05:33:02.399Z,16.61
2022-09-28T05:35:42.512Z,16.59
2022-09-28T05:38:09.661Z,16.56
2022-09-28T05:40:36.976Z,16.75
2022-09-28T05:43:04.125Z,17.21
2022-09-28T05:45:32.570Z,17.29
2022-09-28T05:47:59.951Z,17.15
2022-09-28T05:50:28.086Z,17.10
2022-09-28T05:53:07.021Z,17.09
2022-09-28T05:55:35.325Z,17.09
2022-09-28T05:58:05.379Z,17.17
2022-09-28T06:00:35.750Z,17.08
2022-09-28T06:03:08.937Z,17.13
2022-09-28T06:05:39.534Z,17.15
2022-09-28T06:08:10.467Z,17.27
2022-09-28T06:10:39.969Z,17.31
2022-09-28T06:13:07.663Z,17.27
2022-09-28T06:15:36.490Z,17.13
2022-09-28T06:18:06.984Z,17.04
2022-09-28T06:20:41.230Z,17.21
2022-09-28T06:23:16.321Z,17.24
2022-09-28T06:25:43.952Z,17.26
2022-09-28T06:28:13.920Z,17.33
2022-09-28T06:30:42.258Z,17.14
2022-09-28T06:33:14.559Z,17.12
2022-09-28T06:35:42.484Z,17.10
2022-09-28T06:38:10.791Z,17.13
2022-09-28T06:40:38.531Z,16.69
2022-09-28T06:43:17.461Z,16.59
2022-09-28T06:46:03.604Z,16.49
2022-09-28T06:48:33.569Z,16.45
2022-09-28T06:51:01.605Z,16.62
2022-09-28T06:53:49.024Z,16.74
2022-09-28T06:56:33.279Z,16.75
2022-09-28T06:59:00.793Z,16.94
2022-09-28T07:01:28.799Z,17.27
2022-09-28T07:04:06.910Z,17.37
2022-09-28T07:06:54.353Z,17.73
2022-09-28T07:09:51.239Z,17.85
2022-09-28T07:12:30.437Z,17.98
2022-09-28T07:15:02.696Z,17.97
2022-09-28T07:17:30.127Z,18.21
2022-09-28T07:20:09.911Z,18.41
2022-09-28T07:22:43.902Z,18.54
2022-09-28T07:25:17.474Z,18.66
2022-09-28T07:28:00.324Z,18.85
2022-09-28T07:30:47.960Z,18.97
2022-09-28T07:33:32.711Z,18.95
2022-09-28T07:36:18.584Z,19.01
2022-09-28T07:38:45.781Z,19.13
2022-09-28T07:41:14.227Z,19.37
2022-09-28T07:43:48.692Z,19.51
2022-09-28T07:46:17.000Z,19.52
2022-09-28T07:49:01.108Z,19.57
2022-09-28T07:51:34.635Z,19.63
2022-09-28T07:54:20.689Z,19.73
2022-09-28T07:57:11.060Z,19.88
2022-09-28T07:59:53.697Z,19.79
2022-09-28T08:02:27.078Z,19.78
2022-09-28T08:04:54.236Z,19.82
2022-09-28T08:07:24.204Z,19.65
2022-09-28T08:09:59.311Z,19.37
2022-09-28T08:12:26.645Z,19.43
2022-09-28T08:15:23.420Z,19.44
2022-09-28T08:18:02.015Z,19.61
2022-09-28T08:20:51.575Z,19.92
2022-09-28T08:23:20.489Z,20.14
2022-09-28T08:25:52.620Z,20.22
2022-09-28T08:28:20.773Z,20.25
2022-09-28T08:30:49.518Z,20.15
2022-09-28T08:33:39.629Z,20.04
2022-09-28T08:36:44.905Z,20.03
2022-09-28T08:39:30.907Z,19.87
2022-09-28T08:42:35.828Z,19.96
2022-09-28T08:45:25.105Z,20.04
2022-09-28T08:48:33.023Z,20.02
2022-09-28T08:51:20.507Z,20.12
2022-09-28T08:54:24.809Z,20.08
2022-09-28T08:57:12.712Z,20.03
2022-09-28T08:59:46.214Z,20.02
2022-09-28T09:02:33.784Z,20.00
2022-09-28T09:06:04.118Z,20.07
2022-09-28T09:09:12.355Z,20.17
2022-09-28T09:12:00.831Z,20.20
2022-09-28T09:14:46.393Z,20.07
2022-09-28T09:18:07.289Z,20.12
2022-09-28T09:20:56.961Z,20.05
2022-09-28T09:23:54.322Z,19.99
2022-09-28T09:26:39.636Z,20.12
2022-09-28T09:29:40.723Z,20.30
2022-09-28T09:32:35.872Z,20.42
2022-09-28T09:35:09.291Z,20.56
2022-09-28T09:38:22.141Z,20.68
2022-09-28T09:41:28.201Z,20.69
2022-09-28T09:44:46.005Z,20.60
2022-09-28T09:48:29.455Z,20.55
2022-09-28T09:51:20.080Z,20.61
2022-09-28T09:53:55.676Z,20.62
2022-09-28T09:56:27.384Z,20.71
2022-09-28T09:59:24.194Z,20.88
2022-09-28T10:02:23.718Z,21.09
2022-09-28T10:05:06.114Z,21.16
2022-09-28T10:08:14.595Z,21.31
2022-09-28T10:11:22.296Z,21.57
2022-09-28T10:13:55.372Z,21.73
2022-09-28T10:16:53.919Z,21.92
2022-09-28T10:19:43.767Z,21.99
2022-09-28T10:22:41.052Z,22.04
2022-09-28T10:25:13.465Z,22.07
2022-09-28T10:27:47.585Z,22.26
2022-09-28T10:30:19.163Z,22.41
2022-09-28T10:32:49.614Z,22.47
2022-09-28T10:35:24.206Z,22.45
2022-09-28T10:38:00.691Z,22.54
2022-09-28T10:40:51.621Z,22.42
2022-09-28T10:43:34.920Z,22.58
2022-09-28T10:46:15.268Z,22.70
2022-09-28T10:49:18.754Z,22.58
2022-09-28T10:51:56.289Z,22.46
2022-09-28T10:54:38.901Z,22.47
2022-09-28T10:57:27.845Z,22.45
2022-09-28T10:59:59.332Z,22.38
2022-09-28T11:02:36.600Z,22.29
2022-09-28T11:05:30.209Z,22.21
2022-09-28T11:08:02.843Z,22.26
2022-09-28T11:10:38.143Z,22.23
2022-09-28T11:13:12.775Z,22.25
2022-09-28T11:15:44.471Z,22.13
2022-09-28T11:18:32.575Z,22.21
2022-09-28T11:21:12.550Z,22.32
2022-09-28T11:24:01.533Z,22.34
2022-09-28T11:26:41.063Z,22.35
2022-09-28T11:29:44.351Z,22.35
2022-09-28T11:32:44.683Z,22.39
2022-09-28T11:35:22.423Z,22.49
2022-09-28T11:37:57.369Z,22.59
2022-09-28T11:40:43.305Z,22.69
2022-09-28T11:43:36.920Z,22.77
2022-09-28T11:46:15.106Z,22.84
2022-09-28T11:48:49.476Z,22.92
2022-09-28T11:51:22.140Z,22.97
2022-09-28T11:53:54.344Z,23.02
2022-09-28T11:56:42.180Z,22.96
2022-09-28T11:59:25.285Z,23.00
2022-09-28T12:01:57.788Z,22.82
2022-09-28T12:05:21.348Z,22.86
2022-09-28T12:08:04.684Z,22.86
2022-09-28T12:11:24.212Z,22.98
2022-09-28T12:14:28.693Z,23.03
2022-09-28T12:17:08.273Z,23.09
2022-09-28T12:19:55.609Z,23.08
2022-09-28T12:22:33.872Z,23.08
2022-09-28T12:25:04.149Z,23.26
2022-09-28T12:27:46.744Z,23.34
2022-09-28T12:30:20.106Z,23.47
2022-09-28T12:32:50.452Z,23.52
2022-09-28T12:35:40.514Z,23.50
2022-09-28T12:38:22.673Z,23.55
2022-09-28T12:41:08.979Z,23.60
2022-09-28T12:43:41.000Z,23.77
2022-09-28T12:46:12.086Z,23.88
2022-09-28T12:49:03.035Z,23.91
2022-09-28T12:51:43.990Z,23.82
2022-09-28T12:54:19.427Z,23.81
2022-09-28T12:57:04.956Z,23.55
2022-09-28T12:59:34.966Z,23.68
2022-09-28T13:02:30.156Z,23.79
2022-09-28T13:05:12.458Z,23.86
2022-09-28T13:07:58.263Z,23.89
2022-09-28T13:10:34.234Z,23.93
2022-09-28T13:13:31.753Z,23.96
2022-09-28T13:16:28.360Z,23.95
2022-09-28T13:19:17.299Z,23.98
2022-09-28T13:22:13.108Z,24.02
2022-09-28T13:24:44.756Z,24.12
2022-09-28T13:27:21.278Z,24.21
2022-09-28T13:29:50.463Z,24.30
2022-09-28T13:32:19.430Z,24.40
2022-09-28T13:34:50.553Z,24.50
2022-09-28T13:37:25.338Z,24.52
2022-09-28T13:39:57.047Z,24.48
2022-09-28T13:42:26.996Z,24.48
2022-09-28T13:45:22.302Z,24.47
2022-09-28T13:47:52.498Z,24.49
2022-09-28T13:50:47.593Z,24.51
2022-09-28T13:53:45.772Z,24.48
2022-09-28T13:56:37.471Z,24.35
2022-09-28T13:59:11.229Z,24.11
2022-09-28T14:02:06.822Z,24.01
2022-09-28T14:04:56.222Z,23.80
2022-09-28T14:07:35.477Z,23.58
2022-09-28T14:10:24.748Z,23.43
2022-09-28T14:12:53.606Z,23.47
2022-09-28T14:15:30.010Z,23.54
2022-09-28T14:18:20.924Z,23.53
2022-09-28T14:21:07.192Z,23.63
2022-09-28T14:23:50.802Z,23.44
2022-09-28T14:26:41.901Z,23.82
2022-09-28T14:29:36.456Z,23.84
2022-09-28T14:32:09.541Z,23.90
2022-09-28T14:34:41.490Z,23.96
2022-09-28T14:37:46.033Z,23.72
2022-09-28T14:41:11.361Z,23.37
2022-09-28T14:43:44.676Z,23.23
2022-09-28T14:46:11.985Z,23.39
2022-09-28T14:48:55.474Z,23.51
2022-09-28T14:51:33.105Z,23.63
2022-09-28T14:54:03.356Z,23.68
2022-09-28T14:56:40.442Z,23.20
2022-09-28T14:59:17.880Z,22.83
2022-09-28T15:01:57.852Z,23.01
2022-09-28T15:04:28.848Z,23.26
2022-09-28T15:06:58.344Z,23.35
2022-09-28T15:09:32.222Z,23.44
2022-09-28T15:12:03.546Z,23.53
2022-09-28T15:14:33.524Z,23.59
2022-09-28T15:17:08.712Z,23.65
2022-09-28T15:20:03.868Z,23.70
2022-09-28T15:22:31.261Z,23.66
2022-09-28T15:25:02.416Z,23.56
2022-09-28T15:27:38.176Z,23.59
2022-09-28T15:30:22.523Z,23.61
2022-09-28T15:32:50.057Z,23.63
2022-09-28T15:35:23.713Z,23.64
2022-09-28T15:37:56.566Z,23.60
2022-09-28T15:40:33.848Z,23.53
2022-09-28T15:43:02.647Z,23.46
2022-09-28T15:45:40.764Z,23.39
2022-09-28T15:48:37.509Z,23.29
2022-09-28T15:51:11.114Z,23.28
2022-09-28T15:53:44.127Z,23.34
2022-09-28T15:56:11.932Z,23.30
2022-09-28T15:58:39.776Z,23.25
2022-09-28T16:01:26.084Z,23.18
2022-09-28T16:03:53.984Z,23.11
2022-09-28T16:06:22.036Z,23.09
2022-09-28T16:12:21.856Z,22.89
2022-09-28T16:14:51.976Z,22.74
2022-09-28T16:17:33.836Z,22.78
2022-09-28T16:20:29.255Z,22.74
2022-09-28T16:23:03.608Z,22.68
2022-09-28T16:25:30.728Z,22.67
2022-09-28T16:27:58.073Z,22.59
2022-09-28T16:30:32.518Z,22.38
2022-09-28T16:33:05.778Z,22.47
2022-09-28T16:35:35.954Z,22.39
2022-09-28T16:38:14.646Z,22.18
2022-09-28T16:41:04.175Z,22.13
2022-09-28T16:43:36.311Z,22.15
2022-09-28T16:46:16.022Z,22.09
2022-09-28T16:48:51.576Z,22.06
2022-09-28T16:51:20.482Z,22.00
2022-09-28T16:54:06.539Z,21.91
2022-09-28T16:56:35.813Z,21.82
2022-09-28T16:59:03.151Z,21.78
2022-09-28T17:01:31.556Z,21.72
2022-09-28T17:03:58.909Z,21.59
2022-09-28T17:06:27.162Z,21.60
2022-09-28T17:08:59.256Z,21.59
2022-09-28T17:11:26.332Z,21.52
2022-09-28T17:13:59.153Z,21.39
2022-09-28T17:19:24.570Z,21.45
2022-09-28T17:21:53.214Z,21.44
2022-09-28T17:24:20.864Z,21.36
2022-09-28T17:26:51.008Z,21.33
2022-09-28T17:29:18.901Z,21.28
2022-09-28T17:31:47.092Z,21.28
2022-09-28T17:34:19.578Z,21.24
2022-09-28T17:36:47.537Z,21.13
2022-09-28T17:39:18.565Z,21.12
2022-09-28T17:41:47.437Z,20.97
2022-09-28T17:44:16.420Z,20.77
2022-09-28T17:46:47.608Z,20.77
2022-09-28T17:49:15.473Z,20.67
2022-09-28T17:51:42.728Z,20.67
2022-09-28T17:54:10.406Z,20.69
2022-09-28T17:56:37.739Z,20.66
2022-09-28T17:59:07.525Z,20.67
2022-09-28T18:01:38.125Z,20.65
2022-09-28T18:04:08.221Z,20.51
2022-09-28T18:06:37.304Z,20.53
2022-09-28T18:09:05.411Z,20.47
2022-09-28T18:11:33.803Z,20.37
2022-09-28T18:14:01.327Z,20.39
2022-09-28T18:16:29.222Z,20.26
2022-09-28T18:18:56.660Z,20.07
2022-09-28T18:21:23.816Z,20.11
2022-09-28T18:23:51.015Z,20.08
2022-09-28T18:26:21.409Z,20.03
2022-09-28T18:28:48.614Z,19.94
2022-09-28T18:31:19.145Z,20.04
2022-09-28T18:33:51.303Z,20.05
2022-09-28T18:36:18.636Z,20.24
2022-09-28T18:38:45.706Z,20.29
2022-09-28T18:41:15.806Z,20.29
2022-09-28T18:43:49.027Z,20.12
2022-09-28T18:46:18.442Z,20.12
2022-09-28T18:48:47.931Z,20.13
2022-09-28T18:51:15.438Z,19.82
2022-09-28T18:53:42.654Z,19.82
2022-09-28T18:56:12.512Z,19.80
2022-09-28T18:58:41.389Z,19.81
2022-09-28T19:01:33.390Z,19.75
2022-09-28T19:04:06.572Z,19.72
2022-09-28T19:06:34.473Z,19.70
2022-09-28T19:09:01.853Z,19.50
2022-09-28T19:11:29.116Z,19.65
2022-09-28T19:13:56.717Z,19.46
2022-09-28T19:16:28.746Z,19.44
2022-09-28T19:18:58.291Z,19.44
2022-09-28T19:21:26.827Z,19.39
2022-09-28T19:23:55.682Z,19.12
2022-09-28T19:26:25.652Z,19.05
2022-09-28T19:28:53.824Z,19.16
2022-09-28T19:31:21.958Z,19.31
2022-09-28T19:33:49.924Z,19.34
2022-09-28T19:36:19.667Z,19.31
2022-09-28T19:38:47.576Z,19.16
2022-09-28T19:41:39.372Z,19.21
2022-09-28T19:44:25.214Z,18.75
2022-09-28T19:46:55.381Z,18.88
2022-09-28T19:49:24.976Z,18.98
2022-09-28T19:52:11.968Z,18.54
2022-09-28T19:54:39.832Z,18.61
2022-09-28T19:57:08.753Z,18.69
2022-09-28T19:59:37.515Z,18.76
2022-09-28T20:02:07.097Z,18.83
2022-09-28T20:04:34.907Z,18.87
2022-09-28T20:07:02.612Z,18.81
2022-09-28T20:09:29.930Z,18.73
2022-09-28T20:11:57.488Z,18.85
2022-09-28T20:14:26.270Z,18.87
2022-09-28T20:16:55.449Z,18.62
2022-09-28T20:19:23.358Z,18.71
2022-09-28T20:21:50.946Z,18.79
2022-09-28T20:24:18.632Z,18.83
2022-09-28T20:26:46.029Z,18.82
2022-09-28T20:29:13.370Z,18.66
2022-09-28T20:31:40.778Z,18.88
2022-09-28T20:34:08.210Z,18.88
2022-09-28T20:36:35.415Z,18.73
2022-09-28T20:39:02.973Z,18.80
2022-09-28T20:41:35.714Z,18.83
2022-09-28T20:44:05.918Z,18.80
2022-09-28T20:46:37.291Z,18.67
2022-09-28T20:49:05.417Z,18.65
2022-09-28T20:51:32.833Z,18.71
2022-09-28T20:54:00.111Z,18.71
2022-09-28T20:56:37.792Z,18.72
2022-09-28T20:59:08.075Z,18.74
2022-09-28T21:01:35.536Z,18.67
2022-09-28T21:04:04.754Z,18.68
2022-09-28T21:06:35.154Z,18.70
2022-09-28T21:09:03.312Z,18.69
2022-09-28T21:11:30.946Z,17.87
2022-09-28T21:13:59.896Z,17.97
2022-09-28T21:16:28.895Z,18.12
2022-09-28T21:18:56.400Z,18.07
2022-09-28T21:21:24.864Z,18.16
2022-09-28T21:23:53.410Z,18.14
2022-09-28T21:26:25.923Z,18.08
2022-09-28T21:28:54.142Z,18.00
2022-09-28T21:31:27.540Z,17.78
2022-09-28T21:33:56.372Z,17.84
2022-09-28T21:36:24.598Z,17.97
2022-09-28T21:38:51.832Z,18.00
2022-09-28T21:41:18.921Z,18.00
2022-09-28T21:43:46.081Z,17.82
2022-09-28T21:46:13.681Z,17.95
2022-09-28T21:48:41.460Z,17.95
2022-09-28T21:51:13.050Z,17.98
2022-09-28T21:53:40.295Z,17.92
2022-09-28T21:56:10.619Z,18.00
2022-09-28T21:58:38.044Z,17.87
2022-09-28T22:01:18.050Z,18.01
2022-09-28T22:03:48.164Z,17.97
2022-09-28T22:06:17.274Z,17.81
2022-09-28T22:08:46.100Z,17.89
2022-09-28T22:11:16.406Z,17.84
2022-09-28T22:13:49.434Z,17.73
2022-09-28T22:16:18.659Z,17.63
2022-09-28T22:18:46.434Z,17.70
2022-09-28T22:21:14.962Z,17.73
2022-09-28T22:23:42.743Z,17.72
2022-09-28T22:26:18.071Z,17.76
2022-09-28T22:28:57.516Z,17.65
2022-09-28T22:31:28.940Z,17.69
2022-09-28T22:33:56.829Z,17.72
2022-09-28T22:36:24.428Z,17.57
2022-09-28T22:38:52.288Z,17.67
2022-09-28T22:41:22.928Z,17.67
2022-09-28T22:43:52.603Z,17.58
2022-09-28T22:46:25.670Z,17.73
2022-09-28T22:48:55.323Z,17.73
2022-09-28T22:51:24.670Z,17.73
2022-09-28T22:53:52.121Z,17.74
2022-09-28T22:56:19.505Z,17.60
2022-09-28T22:58:47.306Z,17.71
2022-09-28T23:01:21.334Z,17.53
2022-09-28T23:03:50.011Z,17.49
2022-09-28T23:06:19.141Z,17.56
2022-09-28T23:08:47.582Z,17.45
2022-09-28T23:11:15.742Z,17.48
2022-09-28T23:13:43.889Z,17.42
2022-09-28T23:16:12.738Z,17.57
2022-09-28T23:18:43.735Z,17.56
2022-09-28T23:21:13.533Z,17.56
2022-09-28T23:23:41.162Z,17.52
2022-09-28T23:26:20.479Z,17.60
2022-09-28T23:28:47.593Z,17.59
2022-09-28T23:31:18.080Z,17.62
2022-09-28T23:33:45.377Z,17.41
2022-09-28T23:36:12.708Z,17.47
2022-09-28T23:38:40.181Z,17.39
2022-09-28T23:41:07.971Z,17.45
2022-09-28T23:43:36.416Z,17.46
2022-09-28T23:46:05.223Z,17.48
2022-09-28T23:48:33.265Z,17.38
2022-09-28T23:51:00.767Z,17.11
2022-09-28T23:53:28.619Z,16.90
2022-09-28T23:55:56.071Z,16.97
2022-09-28T23:58:23.252Z,17.04
